sensor_id;sensor_type;location;lat;lon;timestamp;P1;durP1;ratioP1;P2;durP2;ratioP2
50739;SDS011;36704;52.524;17.580;2023-06-01T00:00:16;11.73;;;6.07;;
50739;SDS011;36704;52.524;17.580;2023-06-01T00:03:24;14.38;;;6.10;;
50739;SDS011;36704;52.524;17.580;2023-06-01T00:06:12;7.75;;;5.18;;
50739;SDS011;36704;52.524;17.580;2023-06-01T00:08:59;8.82;;;4.90;;
50739;SDS011;36704;52.524;17.580;2023-06-01T00:11:45;8.75;;;5.00;;
50739;SDS011;36704;52.524;17.580;2023-06-01T00:14:31;9.25;;;5.40;;
50739;SDS011;36704;52.524;17.580;2023-06-01T00:17:17;9.13;;;5.15;;
50739;SDS011;36704;52.524;17.580;2023-06-01T00:20:05;10.52;;;5.10;;
50739;SDS011;36704;52.524;17.580;2023-06-01T00:22:53;11.15;;;5.22;;
50739;SDS011;36704;52.524;17.580;2023-06-01T00:25:40;10.00;;;4.63;;
50739;SDS011;36704;52.524;17.580;2023-06-01T00:28:26;8.05;;;4.95;;
50739;SDS011;36704;52.524;17.580;2023-06-01T00:31:13;10.00;;;5.07;;
50739;SDS011;36704;52.524;17.580;2023-06-01T00:33:59;8.30;;;4.63;;
50739;SDS011;36704;52.524;17.580;2023-06-01T00:36:45;7.68;;;4.50;;
50739;SDS011;36704;52.524;17.580;2023-06-01T00:39:32;6.85;;;4.47;;
50739;SDS011;36704;52.524;17.580;2023-06-01T00:42:18;8.10;;;4.65;;
50739;SDS011;36704;52.524;17.580;2023-06-01T00:45:04;9.20;;;4.68;;
50739;SDS011;36704;52.524;17.580;2023-06-01T00:47:51;10.80;;;5.30;;
50739;SDS011;36704;52.524;17.580;2023-06-01T00:50:38;8.70;;;5.32;;
50739;SDS011;36704;52.524;17.580;2023-06-01T00:53:25;7.68;;;4.80;;
50739;SDS011;36704;52.524;17.580;2023-06-01T00:56:11;8.77;;;4.90;;
50739;SDS011;36704;52.524;17.580;2023-06-01T00:59:00;8.00;;;4.90;;
50739;SDS011;36704;52.524;17.580;2023-06-01T01:01:46;8.57;;;4.68;;
50739;SDS011;36704;52.524;17.580;2023-06-01T01:04:32;8.68;;;4.30;;
50739;SDS011;36704;52.524;17.580;2023-06-01T01:07:24;10.63;;;4.50;;
50739;SDS011;36704;52.524;17.580;2023-06-01T01:10:14;7.10;;;4.78;;
50739;SDS011;36704;52.524;17.580;2023-06-01T01:16:18;7.07;;;4.53;;
50739;SDS011;36704;52.524;17.580;2023-06-01T01:28:37;6.43;;;4.10;;
50739;SDS011;36704;52.524;17.580;2023-06-01T01:31:27;7.55;;;4.53;;
50739;SDS011;36704;52.524;17.580;2023-06-01T01:34:14;7.53;;;3.80;;
50739;SDS011;36704;52.524;17.580;2023-06-01T01:37:01;6.70;;;4.22;;
50739;SDS011;36704;52.524;17.580;2023-06-01T01:39:49;7.05;;;3.90;;
50739;SDS011;36704;52.524;17.580;2023-06-01T01:42:35;7.85;;;4.00;;
50739;SDS011;36704;52.524;17.580;2023-06-01T01:45:21;7.97;;;4.53;;
50739;SDS011;36704;52.524;17.580;2023-06-01T01:48:28;7.90;;;4.28;;
50739;SDS011;36704;52.524;17.580;2023-06-01T01:54:46;8.40;;;3.72;;
50739;SDS011;36704;52.524;17.580;2023-06-01T01:57:35;6.90;;;4.10;;
50739;SDS011;36704;52.524;17.580;2023-06-01T02:00:21;7.10;;;3.45;;
50739;SDS011;36704;52.524;17.580;2023-06-01T02:03:16;6.63;;;3.72;;
50739;SDS011;36704;52.524;17.580;2023-06-01T02:06:02;6.00;;;3.65;;
50739;SDS011;36704;52.524;17.580;2023-06-01T02:08:49;8.02;;;3.97;;
50739;SDS011;36704;52.524;17.580;2023-06-01T02:11:35;6.75;;;4.25;;
50739;SDS011;36704;52.524;17.580;2023-06-01T02:14:21;6.80;;;4.25;;
50739;SDS011;36704;52.524;17.580;2023-06-01T02:17:08;7.30;;;3.75;;
50739;SDS011;36704;52.524;17.580;2023-06-01T02:19:54;6.13;;;3.63;;
50739;SDS011;36704;52.524;17.580;2023-06-01T02:22:40;6.45;;;3.90;;
50739;SDS011;36704;52.524;17.580;2023-06-01T02:25:27;5.90;;;3.80;;
50739;SDS011;36704;52.524;17.580;2023-06-01T02:28:13;8.25;;;3.42;;
50739;SDS011;36704;52.524;17.580;2023-06-01T02:30:59;9.68;;;3.75;;
50739;SDS011;36704;52.524;17.580;2023-06-01T02:33:45;9.60;;;3.88;;
50739;SDS011;36704;52.524;17.580;2023-06-01T02:36:31;6.60;;;4.07;;
50739;SDS011;36704;52.524;17.580;2023-06-01T02:39:18;8.60;;;3.83;;
50739;SDS011;36704;52.524;17.580;2023-06-01T02:42:04;5.90;;;3.80;;
50739;SDS011;36704;52.524;17.580;2023-06-01T02:44:51;6.88;;;3.95;;
50739;SDS011;36704;52.524;17.580;2023-06-01T02:47:37;4.95;;;3.28;;
50739;SDS011;36704;52.524;17.580;2023-06-01T02:50:23;6.28;;;3.50;;
50739;SDS011;36704;52.524;17.580;2023-06-01T02:53:11;7.47;;;3.47;;
50739;SDS011;36704;52.524;17.580;2023-06-01T02:55:57;5.15;;;3.55;;
50739;SDS011;36704;52.524;17.580;2023-06-01T02:58:53;6.47;;;3.90;;
50739;SDS011;36704;52.524;17.580;2023-06-01T03:01:47;7.10;;;3.92;;
50739;SDS011;36704;52.524;17.580;2023-06-01T03:04:34;6.38;;;3.80;;
50739;SDS011;36704;52.524;17.580;2023-06-01T03:07:20;7.88;;;4.10;;
50739;SDS011;36704;52.524;17.580;2023-06-01T03:10:09;7.88;;;4.60;;
50739;SDS011;36704;52.524;17.580;2023-06-01T03:13:15;7.30;;;4.13;;
50739;SDS011;36704;52.524;17.580;2023-06-01T03:16:02;8.00;;;4.03;;
50739;SDS011;36704;52.524;17.580;2023-06-01T03:18:48;6.85;;;4.60;;
50739;SDS011;36704;52.524;17.580;2023-06-01T03:21:35;8.27;;;4.53;;
50739;SDS011;36704;52.524;17.580;2023-06-01T03:24:21;8.07;;;3.90;;
50739;SDS011;36704;52.524;17.580;2023-06-01T03:27:12;7.97;;;4.15;;
50739;SDS011;36704;52.524;17.580;2023-06-01T03:29:59;7.97;;;4.40;;
50739;SDS011;36704;52.524;17.580;2023-06-01T03:32:48;6.05;;;3.80;;
50739;SDS011;36704;52.524;17.580;2023-06-01T03:35:35;8.20;;;4.32;;
50739;SDS011;36704;52.524;17.580;2023-06-01T03:38:21;8.15;;;4.28;;
50739;SDS011;36704;52.524;17.580;2023-06-01T03:41:08;10.82;;;4.75;;
50739;SDS011;36704;52.524;17.580;2023-06-01T03:43:55;9.80;;;4.00;;
50739;SDS011;36704;52.524;17.580;2023-06-01T03:46:41;7.72;;;3.92;;
50739;SDS011;36704;52.524;17.580;2023-06-01T03:49:27;6.25;;;3.90;;
50739;SDS011;36704;52.524;17.580;2023-06-01T03:52:13;9.35;;;4.30;;
50739;SDS011;36704;52.524;17.580;2023-06-01T03:55:03;15.52;;;4.43;;
50739;SDS011;36704;52.524;17.580;2023-06-01T03:58:19;15.57;;;5.45;;
50739;SDS011;36704;52.524;17.580;2023-06-01T04:01:05;10.68;;;4.15;;
50739;SDS011;36704;52.524;17.580;2023-06-01T04:03:52;12.25;;;4.13;;
50739;SDS011;36704;52.524;17.580;2023-06-01T04:06:39;9.32;;;3.95;;
50739;SDS011;36704;52.524;17.580;2023-06-01T04:09:28;8.43;;;3.97;;
50739;SDS011;36704;52.524;17.580;2023-06-01T04:12:15;13.73;;;4.65;;
50739;SDS011;36704;52.524;17.580;2023-06-01T04:15:01;7.03;;;4.00;;
50739;SDS011;36704;52.524;17.580;2023-06-01T04:17:48;9.48;;;3.83;;
50739;SDS011;36704;52.524;17.580;2023-06-01T04:20:34;9.52;;;3.75;;
50739;SDS011;36704;52.524;17.580;2023-06-01T04:23:21;7.93;;;3.75;;
50739;SDS011;36704;52.524;17.580;2023-06-01T04:26:08;12.15;;;3.50;;
50739;SDS011;36704;52.524;17.580;2023-06-01T04:28:55;5.10;;;3.10;;
50739;SDS011;36704;52.524;17.580;2023-06-01T04:31:43;7.72;;;3.15;;
50739;SDS011;36704;52.524;17.580;2023-06-01T04:34:29;6.80;;;3.45;;
50739;SDS011;36704;52.524;17.580;2023-06-01T04:37:16;10.40;;;3.08;;
50739;SDS011;36704;52.524;17.580;2023-06-01T04:40:06;7.57;;;3.53;;
50739;SDS011;36704;52.524;17.580;2023-06-01T04:42:57;6.57;;;3.20;;
50739;SDS011;36704;52.524;17.580;2023-06-01T04:45:45;10.90;;;3.17;;
50739;SDS011;36704;52.524;17.580;2023-06-01T04:48:31;5.90;;;3.10;;
50739;SDS011;36704;52.524;17.580;2023-06-01T04:51:20;6.32;;;2.75;;
50739;SDS011;36704;52.524;17.580;2023-06-01T04:54:07;5.55;;;3.13;;
50739;SDS011;36704;52.524;17.580;2023-06-01T04:56:53;6.60;;;3.22;;
50739;SDS011;36704;52.524;17.580;2023-06-01T04:59:40;6.30;;;2.80;;
50739;SDS011;36704;52.524;17.580;2023-06-01T05:02:27;5.57;;;2.90;;
50739;SDS011;36704;52.524;17.580;2023-06-01T05:05:14;5.82;;;2.65;;
50739;SDS011;36704;52.524;17.580;2023-06-01T05:08:01;3.15;;;2.60;;
50739;SDS011;36704;52.524;17.580;2023-06-01T05:10:47;4.50;;;3.10;;
50739;SDS011;36704;52.524;17.580;2023-06-01T05:13:34;6.15;;;2.55;;
50739;SDS011;36704;52.524;17.580;2023-06-01T05:16:21;4.35;;;2.38;;
50739;SDS011;36704;52.524;17.580;2023-06-01T05:19:09;4.50;;;2.83;;
50739;SDS011;36704;52.524;17.580;2023-06-01T05:21:56;5.57;;;2.40;;
50739;SDS011;36704;52.524;17.580;2023-06-01T05:24:43;5.00;;;2.53;;
50739;SDS011;36704;52.524;17.580;2023-06-01T05:27:30;5.90;;;2.15;;
50739;SDS011;36704;52.524;17.580;2023-06-01T05:30:16;4.38;;;2.20;;
50739;SDS011;36704;52.524;17.580;2023-06-01T05:33:05;4.72;;;2.40;;
50739;SDS011;36704;52.524;17.580;2023-06-01T05:35:51;5.60;;;2.25;;
50739;SDS011;36704;52.524;17.580;2023-06-01T05:38:40;6.17;;;2.47;;
50739;SDS011;36704;52.524;17.580;2023-06-01T05:41:27;4.57;;;2.50;;
50739;SDS011;36704;52.524;17.580;2023-06-01T05:44:13;7.13;;;2.85;;
50739;SDS011;36704;52.524;17.580;2023-06-01T05:46:59;4.10;;;2.25;;
50739;SDS011;36704;52.524;17.580;2023-06-01T05:49:45;5.70;;;2.45;;
50739;SDS011;36704;52.524;17.580;2023-06-01T05:52:31;6.07;;;2.45;;
50739;SDS011;36704;52.524;17.580;2023-06-01T05:55:20;5.13;;;2.20;;
50739;SDS011;36704;52.524;17.580;2023-06-01T05:58:06;4.30;;;2.20;;
50739;SDS011;36704;52.524;17.580;2023-06-01T06:00:53;4.20;;;2.20;;
50739;SDS011;36704;52.524;17.580;2023-06-01T06:03:39;4.60;;;2.15;;
50739;SDS011;36704;52.524;17.580;2023-06-01T06:06:25;5.70;;;2.20;;
50739;SDS011;36704;52.524;17.580;2023-06-01T06:09:12;3.67;;;2.40;;
50739;SDS011;36704;52.524;17.580;2023-06-01T06:11:59;5.32;;;2.45;;
50739;SDS011;36704;52.524;17.580;2023-06-01T06:14:47;2.42;;;2.10;;
50739;SDS011;36704;52.524;17.580;2023-06-01T06:17:34;7.32;;;2.10;;
50739;SDS011;36704;52.524;17.580;2023-06-01T06:20:20;3.45;;;2.20;;
50739;SDS011;36704;52.524;17.580;2023-06-01T06:23:07;5.97;;;2.50;;
50739;SDS011;36704;52.524;17.580;2023-06-01T06:25:53;8.43;;;2.50;;
50739;SDS011;36704;52.524;17.580;2023-06-01T06:28:39;5.88;;;2.40;;
50739;SDS011;36704;52.524;17.580;2023-06-01T06:31:26;6.22;;;3.03;;
50739;SDS011;36704;52.524;17.580;2023-06-01T06:34:12;4.43;;;2.05;;
50739;SDS011;36704;52.524;17.580;2023-06-01T06:36:59;5.57;;;2.53;;
50739;SDS011;36704;52.524;17.580;2023-06-01T06:39:45;4.70;;;2.20;;
50739;SDS011;36704;52.524;17.580;2023-06-01T06:42:32;3.88;;;2.42;;
50739;SDS011;36704;52.524;17.580;2023-06-01T06:45:18;6.47;;;1.98;;
50739;SDS011;36704;52.524;17.580;2023-06-01T06:48:04;3.38;;;2.22;;
50739;SDS011;36704;52.524;17.580;2023-06-01T06:50:51;4.60;;;2.78;;
50739;SDS011;36704;52.524;17.580;2023-06-01T06:53:37;7.18;;;2.45;;
50739;SDS011;36704;52.524;17.580;2023-06-01T06:56:23;3.92;;;2.58;;
50739;SDS011;36704;52.524;17.580;2023-06-01T06:59:10;11.75;;;2.80;;
50739;SDS011;36704;52.524;17.580;2023-06-01T07:01:55;6.70;;;2.38;;
50739;SDS011;36704;52.524;17.580;2023-06-01T07:04:42;5.15;;;2.20;;
50739;SDS011;36704;52.524;17.580;2023-06-01T07:07:28;7.93;;;2.75;;
50739;SDS011;36704;52.524;17.580;2023-06-01T07:10:14;6.82;;;2.20;;
50739;SDS011;36704;52.524;17.580;2023-06-01T07:13:00;5.72;;;2.47;;
50739;SDS011;36704;52.524;17.580;2023-06-01T07:15:47;7.63;;;2.33;;
50739;SDS011;36704;52.524;17.580;2023-06-01T07:18:33;6.18;;;2.22;;
50739;SDS011;36704;52.524;17.580;2023-06-01T07:21:20;5.57;;;2.47;;
50739;SDS011;36704;52.524;17.580;2023-06-01T07:24:06;7.68;;;2.60;;
50739;SDS011;36704;52.524;17.580;2023-06-01T07:26:53;7.72;;;2.80;;
50739;SDS011;36704;52.524;17.580;2023-06-01T07:29:41;5.55;;;2.55;;
50739;SDS011;36704;52.524;17.580;2023-06-01T07:32:30;6.87;;;2.43;;
50739;SDS011;36704;52.524;17.580;2023-06-01T07:35:23;9.40;;;2.85;;
50739;SDS011;36704;52.524;17.580;2023-06-01T07:38:10;6.60;;;2.35;;
50739;SDS011;36704;52.524;17.580;2023-06-01T07:40:57;10.07;;;2.72;;
50739;SDS011;36704;52.524;17.580;2023-06-01T07:43:43;6.47;;;2.22;;
50739;SDS011;36704;52.524;17.580;2023-06-01T07:46:29;4.70;;;2.08;;
50739;SDS011;36704;52.524;17.580;2023-06-01T07:49:16;9.68;;;2.38;;
50739;SDS011;36704;52.524;17.580;2023-06-01T07:52:02;5.28;;;2.40;;
50739;SDS011;36704;52.524;17.580;2023-06-01T07:54:49;6.90;;;2.15;;
50739;SDS011;36704;52.524;17.580;2023-06-01T07:57:37;13.60;;;2.65;;
50739;SDS011;36704;52.524;17.580;2023-06-01T08:00:23;4.65;;;2.65;;
50739;SDS011;36704;52.524;17.580;2023-06-01T08:03:09;6.28;;;2.90;;
50739;SDS011;36704;52.524;17.580;2023-06-01T08:05:57;8.77;;;2.70;;
50739;SDS011;36704;52.524;17.580;2023-06-01T08:08:46;5.57;;;2.30;;
50739;SDS011;36704;52.524;17.580;2023-06-01T08:11:35;8.95;;;2.70;;
50739;SDS011;36704;52.524;17.580;2023-06-01T08:14:21;8.00;;;2.30;;
50739;SDS011;36704;52.524;17.580;2023-06-01T08:17:07;9.60;;;2.90;;
50739;SDS011;36704;52.524;17.580;2023-06-01T08:19:53;6.22;;;2.08;;
50739;SDS011;36704;52.524;17.580;2023-06-01T08:22:41;14.55;;;2.40;;
50739;SDS011;36704;52.524;17.580;2023-06-01T08:25:27;5.68;;;2.33;;
50739;SDS011;36704;52.524;17.580;2023-06-01T08:28:13;9.05;;;2.53;;
50739;SDS011;36704;52.524;17.580;2023-06-01T08:30:59;8.48;;;2.30;;
50739;SDS011;36704;52.524;17.580;2023-06-01T08:33:47;9.93;;;2.53;;
50739;SDS011;36704;52.524;17.580;2023-06-01T08:36:33;8.80;;;2.78;;
50739;SDS011;36704;52.524;17.580;2023-06-01T08:39:20;7.32;;;2.40;;
50739;SDS011;36704;52.524;17.580;2023-06-01T08:45:14;10.10;;;2.55;;
50739;SDS011;36704;52.524;17.580;2023-06-01T08:48:01;5.68;;;2.53;;
50739;SDS011;36704;52.524;17.580;2023-06-01T08:50:49;6.38;;;2.75;;
50739;SDS011;36704;52.524;17.580;2023-06-01T08:53:36;7.65;;;2.25;;
50739;SDS011;36704;52.524;17.580;2023-06-01T08:56:25;6.13;;;2.30;;
50739;SDS011;36704;52.524;17.580;2023-06-01T08:59:13;5.32;;;2.33;;
50739;SDS011;36704;52.524;17.580;2023-06-01T09:01:59;8.98;;;2.30;;
50739;SDS011;36704;52.524;17.580;2023-06-01T09:04:45;5.10;;;2.53;;
50739;SDS011;36704;52.524;17.580;2023-06-01T09:07:32;9.45;;;2.50;;
50739;SDS011;36704;52.524;17.580;2023-06-01T09:10:24;8.63;;;3.05;;
50739;SDS011;36704;52.524;17.580;2023-06-01T09:13:11;10.75;;;2.22;;
50739;SDS011;36704;52.524;17.580;2023-06-01T09:15:56;8.68;;;2.20;;
50739;SDS011;36704;52.524;17.580;2023-06-01T09:18:53;9.73;;;2.28;;
50739;SDS011;36704;52.524;17.580;2023-06-01T09:21:39;8.68;;;2.88;;
50739;SDS011;36704;52.524;17.580;2023-06-01T09:24:26;10.13;;;2.72;;
50739;SDS011;36704;52.524;17.580;2023-06-01T09:27:13;8.55;;;2.20;;
50739;SDS011;36704;52.524;17.580;2023-06-01T09:29:59;10.90;;;2.20;;
50739;SDS011;36704;52.524;17.580;2023-06-01T09:32:46;6.13;;;2.15;;
50739;SDS011;36704;52.524;17.580;2023-06-01T09:35:40;9.38;;;2.45;;
50739;SDS011;36704;52.524;17.580;2023-06-01T09:38:28;8.02;;;2.30;;
50739;SDS011;36704;52.524;17.580;2023-06-01T09:41:15;8.60;;;2.40;;
50739;SDS011;36704;52.524;17.580;2023-06-01T09:44:01;4.95;;;2.17;;
50739;SDS011;36704;52.524;17.580;2023-06-01T09:46:52;6.10;;;2.08;;
50739;SDS011;36704;52.524;17.580;2023-06-01T09:49:40;13.00;;;2.40;;
50739;SDS011;36704;52.524;17.580;2023-06-01T09:52:27;5.65;;;1.98;;
50739;SDS011;36704;52.524;17.580;2023-06-01T09:55:13;6.70;;;2.17;;
50739;SDS011;36704;52.524;17.580;2023-06-01T10:01:05;6.07;;;2.47;;
50739;SDS011;36704;52.524;17.580;2023-06-01T10:03:55;5.28;;;2.00;;
50739;SDS011;36704;52.524;17.580;2023-06-01T10:06:42;4.97;;;2.13;;
50739;SDS011;36704;52.524;17.580;2023-06-01T10:09:29;4.43;;;2.13;;
50739;SDS011;36704;52.524;17.580;2023-06-01T10:12:15;4.97;;;2.20;;
50739;SDS011;36704;52.524;17.580;2023-06-01T10:15:02;7.60;;;2.70;;
50739;SDS011;36704;52.524;17.580;2023-06-01T10:18:01;6.72;;;2.97;;
50739;SDS011;36704;52.524;17.580;2023-06-01T10:20:49;6.43;;;2.50;;
50739;SDS011;36704;52.524;17.580;2023-06-01T10:23:35;10.48;;;2.70;;
50739;SDS011;36704;52.524;17.580;2023-06-01T10:26:21;7.20;;;2.47;;
50739;SDS011;36704;52.524;17.580;2023-06-01T10:29:07;6.30;;;2.28;;
50739;SDS011;36704;52.524;17.580;2023-06-01T10:31:54;7.82;;;2.80;;
50739;SDS011;36704;52.524;17.580;2023-06-01T10:34:44;7.88;;;2.58;;
50739;SDS011;36704;52.524;17.580;2023-06-01T10:43:52;7.50;;;3.10;;
50739;SDS011;36704;52.524;17.580;2023-06-01T10:49:57;7.65;;;2.80;;
50739;SDS011;36704;52.524;17.580;2023-06-01T10:52:36;7.63;;;2.50;;
50739;SDS011;36704;52.524;17.580;2023-06-01T10:55:27;6.00;;;2.40;;
50739;SDS011;36704;52.524;17.580;2023-06-01T10:58:19;6.73;;;2.70;;
50739;SDS011;36704;52.524;17.580;2023-06-01T11:01:08;7.38;;;2.80;;
50739;SDS011;36704;52.524;17.580;2023-06-01T11:03:56;8.23;;;2.72;;
50739;SDS011;36704;52.524;17.580;2023-06-01T11:06:42;5.90;;;2.80;;
50739;SDS011;36704;52.524;17.580;2023-06-01T11:09:40;7.60;;;3.17;;
50739;SDS011;36704;52.524;17.580;2023-06-01T11:12:51;13.32;;;3.88;;
50739;SDS011;36704;52.524;17.580;2023-06-01T11:18:56;12.85;;;3.75;;
50739;SDS011;36704;52.524;17.580;2023-06-01T11:21:46;10.13;;;3.35;;
50739;SDS011;36704;52.524;17.580;2023-06-01T11:24:33;10.98;;;3.60;;
50739;SDS011;36704;52.524;17.580;2023-06-01T11:27:21;7.05;;;3.30;;
50739;SDS011;36704;52.524;17.580;2023-06-01T11:30:08;12.80;;;4.63;;
50739;SDS011;36704;52.524;17.580;2023-06-01T11:32:54;13.82;;;3.60;;
50739;SDS011;36704;52.524;17.580;2023-06-01T11:35:42;14.27;;;3.60;;
50739;SDS011;36704;52.524;17.580;2023-06-01T11:38:49;8.88;;;4.25;;
50739;SDS011;36704;52.524;17.580;2023-06-01T11:41:34;8.25;;;4.25;;
50739;SDS011;36704;52.524;17.580;2023-06-01T11:44:21;13.18;;;4.07;;
50739;SDS011;36704;52.524;17.580;2023-06-01T11:47:07;8.30;;;3.75;;
50739;SDS011;36704;52.524;17.580;2023-06-01T11:49:54;10.50;;;4.13;;
50739;SDS011;36704;52.524;17.580;2023-06-01T11:52:41;10.25;;;3.85;;
50739;SDS011;36704;52.524;17.580;2023-06-01T11:55:27;10.75;;;4.10;;
50739;SDS011;36704;52.524;17.580;2023-06-01T11:58:13;7.68;;;3.78;;
50739;SDS011;36704;52.524;17.580;2023-06-01T12:01:00;11.30;;;3.85;;
50739;SDS011;36704;52.524;17.580;2023-06-01T12:03:48;11.35;;;4.25;;
50739;SDS011;36704;52.524;17.580;2023-06-01T12:06:35;11.00;;;4.25;;
50739;SDS011;36704;52.524;17.580;2023-06-01T12:09:21;7.75;;;3.88;;
50739;SDS011;36704;52.524;17.580;2023-06-01T12:12:08;10.25;;;4.10;;
50739;SDS011;36704;52.524;17.580;2023-06-01T12:14:55;8.52;;;3.83;;
50739;SDS011;36704;52.524;17.580;2023-06-01T12:17:48;7.65;;;3.80;;
50739;SDS011;36704;52.524;17.580;2023-06-01T12:20:39;11.00;;;4.13;;
50739;SDS011;36704;52.524;17.580;2023-06-01T12:23:30;10.00;;;4.03;;
50739;SDS011;36704;52.524;17.580;2023-06-01T12:26:17;12.32;;;4.28;;
50739;SDS011;36704;52.524;17.580;2023-06-01T12:29:03;6.78;;;3.95;;
50739;SDS011;36704;52.524;17.580;2023-06-01T12:31:53;7.28;;;3.88;;
50739;SDS011;36704;52.524;17.580;2023-06-01T12:34:41;10.40;;;4.35;;
50739;SDS011;36704;52.524;17.580;2023-06-01T12:37:33;9.43;;;3.50;;
50739;SDS011;36704;52.524;17.580;2023-06-01T12:40:23;8.30;;;3.35;;
50739;SDS011;36704;52.524;17.580;2023-06-01T12:43:18;11.38;;;3.97;;
50739;SDS011;36704;52.524;17.580;2023-06-01T12:46:05;8.00;;;3.70;;
50739;SDS011;36704;52.524;17.580;2023-06-01T12:48:53;8.65;;;3.95;;
50739;SDS011;36704;52.524;17.580;2023-06-01T12:51:40;6.05;;;3.60;;
50739;SDS011;36704;52.524;17.580;2023-06-01T12:54:26;9.65;;;3.70;;
50739;SDS011;36704;52.524;17.580;2023-06-01T12:57:12;9.07;;;4.10;;
50739;SDS011;36704;52.524;17.580;2023-06-01T12:59:59;5.78;;;3.42;;
50739;SDS011;36704;52.524;17.580;2023-06-01T13:02:47;7.32;;;3.83;;
50739;SDS011;36704;52.524;17.580;2023-06-01T13:05:37;8.88;;;3.78;;
50739;SDS011;36704;52.524;17.580;2023-06-01T13:08:27;8.37;;;4.00;;
50739;SDS011;36704;52.524;17.580;2023-06-01T13:11:13;11.30;;;4.07;;
50739;SDS011;36704;52.524;17.580;2023-06-01T13:13:59;8.15;;;3.30;;
50739;SDS011;36704;52.524;17.580;2023-06-01T13:16:46;10.75;;;4.10;;
50739;SDS011;36704;52.524;17.580;2023-06-01T13:19:33;6.78;;;3.50;;
50739;SDS011;36704;52.524;17.580;2023-06-01T13:22:19;6.97;;;3.58;;
50739;SDS011;36704;52.524;17.580;2023-06-01T13:25:07;14.73;;;4.22;;
50739;SDS011;36704;52.524;17.580;2023-06-01T13:27:55;9.82;;;3.42;;
50739;SDS011;36704;52.524;17.580;2023-06-01T13:30:41;7.05;;;3.78;;
50739;SDS011;36704;52.524;17.580;2023-06-01T13:33:28;12.95;;;4.65;;
50739;SDS011;36704;52.524;17.580;2023-06-01T13:36:14;9.20;;;3.85;;
50739;SDS011;36704;52.524;17.580;2023-06-01T13:39:01;9.02;;;3.30;;
50739;SDS011;36704;52.524;17.580;2023-06-01T13:41:49;8.27;;;3.33;;
50739;SDS011;36704;52.524;17.580;2023-06-01T13:44:36;6.80;;;3.35;;
50739;SDS011;36704;52.524;17.580;2023-06-01T13:47:22;7.53;;;3.22;;
50739;SDS011;36704;52.524;17.580;2023-06-01T13:50:09;5.18;;;2.80;;
50739;SDS011;36704;52.524;17.580;2023-06-01T13:52:55;6.32;;;3.35;;
50739;SDS011;36704;52.524;17.580;2023-06-01T13:55:41;6.30;;;3.42;;
50739;SDS011;36704;52.524;17.580;2023-06-01T13:58:27;12.85;;;4.90;;
50739;SDS011;36704;52.524;17.580;2023-06-01T14:01:14;11.70;;;3.53;;
50739;SDS011;36704;52.524;17.580;2023-06-01T14:03:59;7.90;;;3.40;;
50739;SDS011;36704;52.524;17.580;2023-06-01T14:06:46;9.55;;;3.63;;
50739;SDS011;36704;52.524;17.580;2023-06-01T14:09:32;7.30;;;3.25;;
50739;SDS011;36704;52.524;17.580;2023-06-01T14:12:18;6.93;;;3.47;;
50739;SDS011;36704;52.524;17.580;2023-06-01T14:15:05;7.53;;;3.47;;
50739;SDS011;36704;52.524;17.580;2023-06-01T14:17:51;9.73;;;3.70;;
50739;SDS011;36704;52.524;17.580;2023-06-01T14:20:37;7.40;;;3.42;;
50739;SDS011;36704;52.524;17.580;2023-06-01T14:23:24;5.68;;;3.80;;
50739;SDS011;36704;52.524;17.580;2023-06-01T14:26:10;10.50;;;3.85;;
50739;SDS011;36704;52.524;17.580;2023-06-01T14:28:56;6.40;;;3.50;;
50739;SDS011;36704;52.524;17.580;2023-06-01T14:31:42;9.95;;;4.40;;
50739;SDS011;36704;52.524;17.580;2023-06-01T14:34:29;8.13;;;4.43;;
50739;SDS011;36704;52.524;17.580;2023-06-01T14:37:15;7.10;;;4.30;;
50739;SDS011;36704;52.524;17.580;2023-06-01T14:40:02;8.23;;;4.50;;
50739;SDS011;36704;52.524;17.580;2023-06-01T14:42:47;11.82;;;4.40;;
50739;SDS011;36704;52.524;17.580;2023-06-01T14:45:34;9.25;;;4.97;;
50739;SDS011;36704;52.524;17.580;2023-06-01T14:48:20;8.93;;;4.90;;
50739;SDS011;36704;52.524;17.580;2023-06-01T14:51:07;11.85;;;4.60;;
50739;SDS011;36704;52.524;17.580;2023-06-01T14:53:54;10.65;;;4.90;;
50739;SDS011;36704;52.524;17.580;2023-06-01T14:56:40;10.02;;;4.32;;
50739;SDS011;36704;52.524;17.580;2023-06-01T14:59:27;13.98;;;4.28;;
50739;SDS011;36704;52.524;17.580;2023-06-01T15:02:13;9.50;;;4.55;;
50739;SDS011;36704;52.524;17.580;2023-06-01T15:04:59;10.38;;;4.60;;
50739;SDS011;36704;52.524;17.580;2023-06-01T15:07:46;8.57;;;4.43;;
50739;SDS011;36704;52.524;17.580;2023-06-01T15:10:32;10.02;;;3.83;;
50739;SDS011;36704;52.524;17.580;2023-06-01T15:13:19;9.95;;;4.75;;
50739;SDS011;36704;52.524;17.580;2023-06-01T15:16:05;7.63;;;4.15;;
50739;SDS011;36704;52.524;17.580;2023-06-01T15:18:53;31.75;;;5.97;;
50739;SDS011;36704;52.524;17.580;2023-06-01T15:21:39;9.85;;;4.88;;
50739;SDS011;36704;52.524;17.580;2023-06-01T15:24:26;17.77;;;4.57;;
50739;SDS011;36704;52.524;17.580;2023-06-01T15:27:12;9.07;;;4.65;;
50739;SDS011;36704;52.524;17.580;2023-06-01T15:29:58;15.18;;;4.70;;
50739;SDS011;36704;52.524;17.580;2023-06-01T15:32:45;13.07;;;4.43;;
50739;SDS011;36704;52.524;17.580;2023-06-01T15:35:51;6.85;;;4.00;;
50739;SDS011;36704;52.524;17.580;2023-06-01T15:38:39;8.70;;;4.03;;
50739;SDS011;36704;52.524;17.580;2023-06-01T15:41:26;8.68;;;4.07;;
50739;SDS011;36704;52.524;17.580;2023-06-01T15:44:13;7.15;;;4.35;;
50739;SDS011;36704;52.524;17.580;2023-06-01T15:46:59;13.48;;;4.47;;
50739;SDS011;36704;52.524;17.580;2023-06-01T15:49:48;8.93;;;4.20;;
50739;SDS011;36704;52.524;17.580;2023-06-01T15:52:34;10.57;;;4.70;;
50739;SDS011;36704;52.524;17.580;2023-06-01T15:55:20;6.20;;;3.53;;
50739;SDS011;36704;52.524;17.580;2023-06-01T15:58:07;9.27;;;4.22;;
50739;SDS011;36704;52.524;17.580;2023-06-01T16:00:53;10.32;;;4.00;;
50739;SDS011;36704;52.524;17.580;2023-06-01T16:03:56;6.75;;;4.35;;
50739;SDS011;36704;52.524;17.580;2023-06-01T16:06:42;10.85;;;4.10;;
50739;SDS011;36704;52.524;17.580;2023-06-01T16:09:29;11.90;;;4.10;;
50739;SDS011;36704;52.524;17.580;2023-06-01T16:12:15;9.50;;;4.60;;
50739;SDS011;36704;52.524;17.580;2023-06-01T16:15:02;6.63;;;4.07;;
50739;SDS011;36704;52.524;17.580;2023-06-01T16:17:48;10.10;;;4.43;;
50739;SDS011;36704;52.524;17.580;2023-06-01T16:20:35;11.10;;;4.43;;
50739;SDS011;36704;52.524;17.580;2023-06-01T16:23:21;8.95;;;3.75;;
50739;SDS011;36704;52.524;17.580;2023-06-01T16:26:07;8.05;;;4.32;;
50739;SDS011;36704;52.524;17.580;2023-06-01T16:28:54;10.32;;;3.92;;
50739;SDS011;36704;52.524;17.580;2023-06-01T16:31:40;8.13;;;3.78;;
50739;SDS011;36704;52.524;17.580;2023-06-01T16:34:26;7.72;;;3.65;;
50739;SDS011;36704;52.524;17.580;2023-06-01T16:37:12;13.65;;;3.80;;
50739;SDS011;36704;52.524;17.580;2023-06-01T16:39:59;11.82;;;3.95;;
50739;SDS011;36704;52.524;17.580;2023-06-01T16:42:45;29.02;;;4.90;;
50739;SDS011;36704;52.524;17.580;2023-06-01T16:45:31;9.30;;;3.88;;
50739;SDS011;36704;52.524;17.580;2023-06-01T16:48:18;8.00;;;3.88;;
50739;SDS011;36704;52.524;17.580;2023-06-01T16:51:04;8.85;;;4.18;;
50739;SDS011;36704;52.524;17.580;2023-06-01T16:53:50;11.13;;;4.60;;
50739;SDS011;36704;52.524;17.580;2023-06-01T16:56:37;8.98;;;4.53;;
50739;SDS011;36704;52.524;17.580;2023-06-01T16:59:23;8.30;;;4.25;;
50739;SDS011;36704;52.524;17.580;2023-06-01T17:02:09;6.80;;;4.28;;
50739;SDS011;36704;52.524;17.580;2023-06-01T17:04:56;8.48;;;4.60;;